sensor_id;sensor_type;location;lat;lon;timestamp;P1;durP1;ratioP1;P2;durP2;ratioP2
23474;SDS011;11910;52.086;21.066;2022-10-26T00:01:28;26.45;;;19.50;;
23474;SDS011;11910;52.086;21.066;2022-10-26T00:03:54;26.27;;;19.92;;
23474;SDS011;11910;52.086;21.066;2022-10-26T00:06:22;27.10;;;20.00;;
23474;SDS011;11910;52.086;21.066;2022-10-26T00:08:49;23.38;;;18.95;;
23474;SDS011;11910;52.086;21.066;2022-10-26T00:11:16;25.77;;;18.73;;
23474;SDS011;11910;52.086;21.066;2022-10-26T00:13:43;29.15;;;21.92;;
23474;SDS011;11910;52.086;21.066;2022-10-26T00:16:14;26.65;;;19.92;;
23474;SDS011;11910;52.086;21.066;2022-10-26T00:18:42;24.92;;;19.80;;
23474;SDS011;11910;52.086;21.066;2022-10-26T00:21:08;28.52;;;20.52;;
23474;SDS011;11910;52.086;21.066;2022-10-26T00:23:35;27.60;;;20.30;;
23474;SDS011;11910;52.086;21.066;2022-10-26T00:26:01;24.45;;;18.98;;
23474;SDS011;11910;52.086;21.066;2022-10-26T00:28:27;23.38;;;19.38;;
23474;SDS011;11910;52.086;21.066;2022-10-26T00:30:53;25.83;;;19.92;;
23474;SDS011;11910;52.086;21.066;2022-10-26T00:33:18;23.40;;;19.65;;
23474;SDS011;11910;52.086;21.066;2022-10-26T00:35:47;27.02;;;20.80;;
23474;SDS011;11910;52.086;21.066;2022-10-26T00:38:20;25.00;;;19.55;;
23474;SDS011;11910;52.086;21.066;2022-10-26T00:40:45;26.13;;;20.05;;
23474;SDS011;11910;52.086;21.066;2022-10-26T00:43:13;26.65;;;19.35;;
23474;SDS011;11910;52.086;21.066;2022-10-26T00:45:40;27.65;;;19.80;;
23474;SDS011;11910;52.086;21.066;2022-10-26T00:48:10;25.60;;;20.40;;
23474;SDS011;11910;52.086;21.066;2022-10-26T00:50:58;25.73;;;19.83;;
23474;SDS011;11910;52.086;21.066;2022-10-26T00:53:26;26.30;;;19.10;;
23474;SDS011;11910;52.086;21.066;2022-10-26T00:55:54;25.77;;;21.63;;
23474;SDS011;11910;52.086;21.066;2022-10-26T00:58:20;26.02;;;21.25;;
23474;SDS011;11910;52.086;21.066;2022-10-26T01:00:48;27.77;;;20.15;;
23474;SDS011;11910;52.086;21.066;2022-10-26T01:03:15;28.95;;;19.88;;
23474;SDS011;11910;52.086;21.066;2022-10-26T01:05:42;30.65;;;21.73;;
23474;SDS011;11910;52.086;21.066;2022-10-26T01:08:10;27.92;;;20.77;;
23474;SDS011;11910;52.086;21.066;2022-10-26T01:10:37;30.42;;;22.17;;
23474;SDS011;11910;52.086;21.066;2022-10-26T01:13:05;27.25;;;22.55;;
23474;SDS011;11910;52.086;21.066;2022-10-26T01:18:37;28.85;;;23.92;;
23474;SDS011;11910;52.086;21.066;2022-10-26T01:32:27;31.58;;;26.23;;
23474;SDS011;11910;52.086;21.066;2022-10-26T01:35:04;28.60;;;25.02;;
23474;SDS011;11910;52.086;21.066;2022-10-26T01:37:39;31.35;;;26.42;;
23474;SDS011;11910;52.086;21.066;2022-10-26T01:40:33;30.98;;;24.02;;
23474;SDS011;11910;52.086;21.066;2022-10-26T01:43:13;28.80;;;24.17;;
23474;SDS011;11910;52.086;21.066;2022-10-26T01:45:41;31.83;;;23.80;;
23474;SDS011;11910;52.086;21.066;2022-10-26T01:48:11;28.67;;;23.20;;
23474;SDS011;11910;52.086;21.066;2022-10-26T01:50:40;30.42;;;23.85;;
23474;SDS011;11910;52.086;21.066;2022-10-26T01:53:10;29.63;;;23.77;;
23474;SDS011;11910;52.086;21.066;2022-10-26T01:58:15;30.70;;;24.60;;
23474;SDS011;11910;52.086;21.066;2022-10-26T02:06:30;29.65;;;23.13;;
23474;SDS011;11910;52.086;21.066;2022-10-26T02:09:33;34.85;;;25.05;;
23474;SDS011;11910;52.086;21.066;2022-10-26T02:12:14;30.52;;;23.52;;
23474;SDS011;11910;52.086;21.066;2022-10-26T02:15:10;28.45;;;21.70;;
23474;SDS011;11910;52.086;21.066;2022-10-26T02:17:49;32.17;;;24.75;;
23474;SDS011;11910;52.086;21.066;2022-10-26T02:20:26;27.77;;;22.05;;
23474;SDS011;11910;52.086;21.066;2022-10-26T02:22:56;32.50;;;23.80;;
23474;SDS011;11910;52.086;21.066;2022-10-26T02:25:26;30.27;;;22.92;;
23474;SDS011;11910;52.086;21.066;2022-10-26T02:27:56;32.22;;;24.63;;
23474;SDS011;11910;52.086;21.066;2022-10-26T02:30:26;29.05;;;22.67;;
23474;SDS011;11910;52.086;21.066;2022-10-26T02:32:53;30.25;;;23.48;;
23474;SDS011;11910;52.086;21.066;2022-10-26T02:35:23;32.45;;;24.13;;
23474;SDS011;11910;52.086;21.066;2022-10-26T02:37:52;32.53;;;24.85;;
23474;SDS011;11910;52.086;21.066;2022-10-26T02:40:21;30.73;;;23.42;;
23474;SDS011;11910;52.086;21.066;2022-10-26T02:42:49;35.83;;;25.83;;
23474;SDS011;11910;52.086;21.066;2022-10-26T02:45:19;35.92;;;24.23;;
23474;SDS011;11910;52.086;21.066;2022-10-26T02:47:48;32.50;;;23.73;;
23474;SDS011;11910;52.086;21.066;2022-10-26T02:50:14;32.35;;;23.13;;
23474;SDS011;11910;52.086;21.066;2022-10-26T02:52:53;29.60;;;23.85;;
23474;SDS011;11910;52.086;21.066;2022-10-26T02:55:39;30.20;;;22.98;;
23474;SDS011;11910;52.086;21.066;2022-10-26T02:58:12;35.58;;;25.95;;
23474;SDS011;11910;52.086;21.066;2022-10-26T03:00:42;31.85;;;23.73;;
23474;SDS011;11910;52.086;21.066;2022-10-26T03:03:09;33.00;;;23.70;;
23474;SDS011;11910;52.086;21.066;2022-10-26T03:05:35;36.65;;;24.65;;
23474;SDS011;11910;52.086;21.066;2022-10-26T03:08:05;32.33;;;23.73;;
23474;SDS011;11910;52.086;21.066;2022-10-26T03:10:31;33.60;;;25.88;;
23474;SDS011;11910;52.086;21.066;2022-10-26T03:12:57;34.78;;;24.75;;
23474;SDS011;11910;52.086;21.066;2022-10-26T03:15:23;38.45;;;25.95;;
23474;SDS011;11910;52.086;21.066;2022-10-26T03:17:48;30.48;;;23.50;;
23474;SDS011;11910;52.086;21.066;2022-10-26T03:20:14;29.45;;;23.02;;
23474;SDS011;11910;52.086;21.066;2022-10-26T03:22:40;32.22;;;24.00;;
23474;SDS011;11910;52.086;21.066;2022-10-26T03:25:05;32.03;;;24.92;;
23474;SDS011;11910;52.086;21.066;2022-10-26T03:27:31;31.63;;;23.92;;
23474;SDS011;11910;52.086;21.066;2022-10-26T03:29:59;34.13;;;25.02;;
23474;SDS011;11910;52.086;21.066;2022-10-26T03:32:24;32.10;;;25.45;;
23474;SDS011;11910;52.086;21.066;2022-10-26T03:34:50;35.22;;;26.48;;
23474;SDS011;11910;52.086;21.066;2022-10-26T03:37:15;34.15;;;25.05;;
23474;SDS011;11910;52.086;21.066;2022-10-26T03:39:41;34.63;;;26.65;;
23474;SDS011;11910;52.086;21.066;2022-10-26T03:42:06;34.47;;;26.17;;
23474;SDS011;11910;52.086;21.066;2022-10-26T03:44:32;34.80;;;26.40;;
23474;SDS011;11910;52.086;21.066;2022-10-26T03:46:58;35.85;;;26.23;;
23474;SDS011;11910;52.086;21.066;2022-10-26T03:49:23;40.50;;;28.42;;
23474;SDS011;11910;52.086;21.066;2022-10-26T03:51:49;31.60;;;26.40;;
23474;SDS011;11910;52.086;21.066;2022-10-26T03:54:14;34.97;;;26.70;;
23474;SDS011;11910;52.086;21.066;2022-10-26T03:56:42;39.92;;;26.65;;
23474;SDS011;11910;52.086;21.066;2022-10-26T03:59:08;32.58;;;25.73;;
23474;SDS011;11910;52.086;21.066;2022-10-26T04:01:33;34.72;;;26.23;;
23474;SDS011;11910;52.086;21.066;2022-10-26T04:03:59;37.13;;;28.00;;
23474;SDS011;11910;52.086;21.066;2022-10-26T04:06:25;32.95;;;26.75;;
23474;SDS011;11910;52.086;21.066;2022-10-26T04:08:50;36.78;;;28.42;;
23474;SDS011;11910;52.086;21.066;2022-10-26T04:11:21;37.03;;;26.80;;
23474;SDS011;11910;52.086;21.066;2022-10-26T04:13:46;36.15;;;25.77;;
23474;SDS011;11910;52.086;21.066;2022-10-26T04:16:12;36.13;;;26.58;;
23474;SDS011;11910;52.086;21.066;2022-10-26T04:18:37;32.15;;;25.27;;
23474;SDS011;11910;52.086;21.066;2022-10-26T04:21:03;38.53;;;26.88;;
23474;SDS011;11910;52.086;21.066;2022-10-26T04:23:29;35.67;;;24.92;;
23474;SDS011;11910;52.086;21.066;2022-10-26T04:25:54;35.65;;;25.58;;
23474;SDS011;11910;52.086;21.066;2022-10-26T04:28:20;34.75;;;25.63;;
23474;SDS011;11910;52.086;21.066;2022-10-26T04:30:46;35.22;;;25.30;;
23474;SDS011;11910;52.086;21.066;2022-10-26T04:33:12;35.33;;;26.65;;
23474;SDS011;11910;52.086;21.066;2022-10-26T04:35:38;29.40;;;24.67;;
23474;SDS011;11910;52.086;21.066;2022-10-26T04:38:04;36.08;;;25.00;;
23474;SDS011;11910;52.086;21.066;2022-10-26T04:40:31;33.88;;;24.40;;
23474;SDS011;11910;52.086;21.066;2022-10-26T04:42:57;29.73;;;24.05;;
23474;SDS011;11910;52.086;21.066;2022-10-26T04:45:23;36.13;;;25.75;;
23474;SDS011;11910;52.086;21.066;2022-10-26T04:48:25;33.80;;;24.17;;
23474;SDS011;11910;52.086;21.066;2022-10-26T04:50:43;34.85;;;25.35;;
23474;SDS011;11910;52.086;21.066;2022-10-26T04:53:09;36.63;;;25.40;;
23474;SDS011;11910;52.086;21.066;2022-10-26T04:55:35;35.17;;;25.25;;
23474;SDS011;11910;52.086;21.066;2022-10-26T04:58:01;38.17;;;27.40;;
23474;SDS011;11910;52.086;21.066;2022-10-26T05:00:27;33.80;;;24.20;;
23474;SDS011;11910;52.086;21.066;2022-10-26T05:03:00;37.00;;;25.70;;
23474;SDS011;11910;52.086;21.066;2022-10-26T05:05:27;33.80;;;24.45;;
23474;SDS011;11910;52.086;21.066;2022-10-26T05:07:53;35.17;;;24.98;;
23474;SDS011;11910;52.086;21.066;2022-10-26T05:10:20;33.05;;;24.58;;
23474;SDS011;11910;52.086;21.066;2022-10-26T05:12:49;36.50;;;26.15;;
23474;SDS011;11910;52.086;21.066;2022-10-26T05:15:18;36.17;;;24.83;;
23474;SDS011;11910;52.086;21.066;2022-10-26T05:17:44;33.88;;;25.98;;
23474;SDS011;11910;52.086;21.066;2022-10-26T05:20:11;39.85;;;27.10;;
23474;SDS011;11910;52.086;21.066;2022-10-26T05:22:38;36.78;;;24.88;;
23474;SDS011;11910;52.086;21.066;2022-10-26T05:25:04;43.05;;;28.10;;
23474;SDS011;11910;52.086;21.066;2022-10-26T05:27:30;39.90;;;27.60;;
23474;SDS011;11910;52.086;21.066;2022-10-26T05:29:56;39.28;;;27.83;;
23474;SDS011;11910;52.086;21.066;2022-10-26T05:32:21;38.67;;;27.70;;
23474;SDS011;11910;52.086;21.066;2022-10-26T05:34:47;36.45;;;26.77;;
23474;SDS011;11910;52.086;21.066;2022-10-26T05:37:13;43.40;;;27.75;;
23474;SDS011;11910;52.086;21.066;2022-10-26T05:39:38;39.60;;;27.90;;
23474;SDS011;11910;52.086;21.066;2022-10-26T05:42:04;38.53;;;27.27;;
23474;SDS011;11910;52.086;21.066;2022-10-26T05:44:30;40.53;;;28.70;;
23474;SDS011;11910;52.086;21.066;2022-10-26T05:46:56;39.15;;;28.75;;
23474;SDS011;11910;52.086;21.066;2022-10-26T05:49:22;41.42;;;28.30;;
23474;SDS011;11910;52.086;21.066;2022-10-26T05:51:47;39.58;;;26.98;;
23474;SDS011;11910;52.086;21.066;2022-10-26T05:54:13;36.75;;;27.40;;
23474;SDS011;11910;52.086;21.066;2022-10-26T05:56:38;36.67;;;26.45;;
23474;SDS011;11910;52.086;21.066;2022-10-26T05:59:14;36.58;;;25.42;;
23474;SDS011;11910;52.086;21.066;2022-10-26T06:09:35;31.85;;;23.83;;
23474;SDS011;11910;52.086;21.066;2022-10-26T06:12:02;34.38;;;24.83;;
23474;SDS011;11910;52.086;21.066;2022-10-26T06:14:27;33.30;;;23.77;;
23474;SDS011;11910;52.086;21.066;2022-10-26T06:30:09;35.28;;;25.30;;
23474;SDS011;11910;52.086;21.066;2022-10-26T06:32:36;37.72;;;24.20;;
23474;SDS011;11910;52.086;21.066;2022-10-26T06:37:35;31.85;;;23.25;;
23474;SDS011;11910;52.086;21.066;2022-10-26T06:40:02;34.75;;;24.90;;
23474;SDS011;11910;52.086;21.066;2022-10-26T06:42:30;37.78;;;25.10;;
23474;SDS011;11910;52.086;21.066;2022-10-26T06:44:56;33.95;;;23.80;;
23474;SDS011;11910;52.086;21.066;2022-10-26T06:47:26;32.80;;;23.40;;
23474;SDS011;11910;52.086;21.066;2022-10-26T06:50:04;32.55;;;23.65;;
23474;SDS011;11910;52.086;21.066;2022-10-26T06:55:19;33.75;;;23.50;;
23474;SDS011;11910;52.086;21.066;2022-10-26T06:57:46;32.40;;;22.38;;
23474;SDS011;11910;52.086;21.066;2022-10-26T07:00:19;31.67;;;21.88;;
23474;SDS011;11910;52.086;21.066;2022-10-26T07:02:48;28.50;;;21.95;;
23474;SDS011;11910;52.086;21.066;2022-10-26T07:05:13;33.83;;;22.27;;
23474;SDS011;11910;52.086;21.066;2022-10-26T07:07:40;31.55;;;22.10;;
23474;SDS011;11910;52.086;21.066;2022-10-26T07:10:11;29.35;;;20.80;;
23474;SDS011;11910;52.086;21.066;2022-10-26T07:12:38;29.52;;;20.67;;
23474;SDS011;11910;52.086;21.066;2022-10-26T07:15:04;25.33;;;18.05;;
23474;SDS011;11910;52.086;21.066;2022-10-26T07:17:40;21.40;;;16.45;;
23474;SDS011;11910;52.086;21.066;2022-10-26T07:20:17;22.73;;;15.93;;
23474;SDS011;11910;52.086;21.066;2022-10-26T07:22:49;23.80;;;17.10;;
23474;SDS011;11910;52.086;21.066;2022-10-26T07:25:16;20.75;;;15.90;;
23474;SDS011;11910;52.086;21.066;2022-10-26T07:27:42;22.67;;;16.17;;
23474;SDS011;11910;52.086;21.066;2022-10-26T07:30:08;26.85;;;17.38;;
23474;SDS011;11910;52.086;21.066;2022-10-26T07:32:34;25.45;;;18.23;;
23474;SDS011;11910;52.086;21.066;2022-10-26T07:34:59;25.35;;;18.30;;
23474;SDS011;11910;52.086;21.066;2022-10-26T07:37:25;25.42;;;18.77;;
23474;SDS011;11910;52.086;21.066;2022-10-26T07:39:51;26.10;;;19.20;;
23474;SDS011;11910;52.086;21.066;2022-10-26T07:42:16;27.90;;;19.05;;
23474;SDS011;11910;52.086;21.066;2022-10-26T07:44:42;29.70;;;19.88;;
23474;SDS011;11910;52.086;21.066;2022-10-26T07:47:08;31.73;;;20.92;;
23474;SDS011;11910;52.086;21.066;2022-10-26T07:49:33;30.58;;;20.13;;
23474;SDS011;11910;52.086;21.066;2022-10-26T07:51:59;31.70;;;21.88;;
23474;SDS011;11910;52.086;21.066;2022-10-26T07:54:25;32.17;;;21.55;;
23474;SDS011;11910;52.086;21.066;2022-10-26T07:56:51;33.63;;;21.48;;
23474;SDS011;11910;52.086;21.066;2022-10-26T07:59:16;30.15;;;20.33;;
23474;SDS011;11910;52.086;21.066;2022-10-26T08:01:43;29.40;;;20.33;;
23474;SDS011;11910;52.086;21.066;2022-10-26T08:04:09;27.90;;;20.30;;
23474;SDS011;11910;52.086;21.066;2022-10-26T08:06:34;34.08;;;21.30;;
23474;SDS011;11910;52.086;21.066;2022-10-26T08:09:00;25.48;;;18.05;;
23474;SDS011;11910;52.086;21.066;2022-10-26T08:11:26;24.42;;;17.55;;
23474;SDS011;11910;52.086;21.066;2022-10-26T08:13:51;26.85;;;17.13;;
23474;SDS011;11910;52.086;21.066;2022-10-26T08:16:18;24.85;;;17.80;;
23474;SDS011;11910;52.086;21.066;2022-10-26T08:18:46;26.60;;;17.52;;
23474;SDS011;11910;52.086;21.066;2022-10-26T08:21:12;30.13;;;19.13;;
23474;SDS011;11910;52.086;21.066;2022-10-26T08:23:38;29.13;;;19.30;;
23474;SDS011;11910;52.086;21.066;2022-10-26T08:26:04;29.80;;;20.40;;
23474;SDS011;11910;52.086;21.066;2022-10-26T08:28:30;31.48;;;20.98;;
23474;SDS011;11910;52.086;21.066;2022-10-26T08:30:56;32.13;;;21.10;;
23474;SDS011;11910;52.086;21.066;2022-10-26T08:33:24;30.77;;;20.10;;
23474;SDS011;11910;52.086;21.066;2022-10-26T08:35:56;30.30;;;20.80;;
23474;SDS011;11910;52.086;21.066;2022-10-26T08:38:23;28.90;;;20.20;;
23474;SDS011;11910;52.086;21.066;2022-10-26T08:40:49;31.30;;;20.35;;
23474;SDS011;11910;52.086;21.066;2022-10-26T08:43:21;32.28;;;20.08;;
23474;SDS011;11910;52.086;21.066;2022-10-26T08:46:03;32.15;;;19.05;;
23474;SDS011;11910;52.086;21.066;2022-10-26T08:48:43;27.38;;;17.20;;
23474;SDS011;11910;52.086;21.066;2022-10-26T08:51:14;22.77;;;16.20;;
23474;SDS011;11910;52.086;21.066;2022-10-26T08:53:51;22.92;;;15.57;;
23474;SDS011;11910;52.086;21.066;2022-10-26T08:56:28;24.30;;;16.15;;
23474;SDS011;11910;52.086;21.066;2022-10-26T08:59:05;26.33;;;15.40;;
23474;SDS011;11910;52.086;21.066;2022-10-26T09:01:49;24.30;;;16.55;;
23474;SDS011;11910;52.086;21.066;2022-10-26T09:04:15;27.65;;;17.85;;
23474;SDS011;11910;52.086;21.066;2022-10-26T09:06:45;25.25;;;16.20;;
23474;SDS011;11910;52.086;21.066;2022-10-26T09:12:53;21.05;;;14.70;;
23474;SDS011;11910;52.086;21.066;2022-10-26T09:18:43;22.50;;;14.25;;
23474;SDS011;11910;52.086;21.066;2022-10-26T09:21:27;19.90;;;14.13;;
23474;SDS011;11910;52.086;21.066;2022-10-26T09:24:14;21.15;;;13.95;;
23474;SDS011;11910;52.086;21.066;2022-10-26T09:29:40;20.20;;;13.20;;
23474;SDS011;11910;52.086;21.066;2022-10-26T09:32:12;19.83;;;14.13;;
23474;SDS011;11910;52.086;21.066;2022-10-26T09:34:51;20.55;;;14.07;;
23474;SDS011;11910;52.086;21.066;2022-10-26T09:37:30;18.42;;;13.43;;
23474;SDS011;11910;52.086;21.066;2022-10-26T09:40:17;17.50;;;12.98;;
23474;SDS011;11910;52.086;21.066;2022-10-26T09:45:36;18.40;;;12.73;;
23474;SDS011;11910;52.086;21.066;2022-10-26T09:48:08;15.80;;;11.88;;
23474;SDS011;11910;52.086;21.066;2022-10-26T09:50:42;16.77;;;13.05;;
23474;SDS011;11910;52.086;21.066;2022-10-26T09:53:13;16.48;;;11.55;;
23474;SDS011;11910;52.086;21.066;2022-10-26T09:55:40;14.60;;;11.45;;
23474;SDS011;11910;52.086;21.066;2022-10-26T09:58:31;16.40;;;11.73;;
23474;SDS011;11910;52.086;21.066;2022-10-26T10:01:06;16.20;;;12.32;;
23474;SDS011;11910;52.086;21.066;2022-10-26T10:03:45;15.77;;;11.48;;
23474;SDS011;11910;52.086;21.066;2022-10-26T10:06:15;15.50;;;11.93;;
23474;SDS011;11910;52.086;21.066;2022-10-26T10:11:47;18.52;;;12.02;;
23474;SDS011;11910;52.086;21.066;2022-10-26T10:17:02;15.77;;;11.88;;
23474;SDS011;11910;52.086;21.066;2022-10-26T10:19:37;18.02;;;11.77;;
23474;SDS011;11910;52.086;21.066;2022-10-26T10:24:56;15.32;;;11.27;;
23474;SDS011;11910;52.086;21.066;2022-10-26T10:27:28;15.38;;;10.80;;
23474;SDS011;11910;52.086;21.066;2022-10-26T10:29:55;14.15;;;10.70;;
23474;SDS011;11910;52.086;21.066;2022-10-26T10:32:47;16.98;;;10.60;;
23474;SDS011;11910;52.086;21.066;2022-10-26T10:35:28;16.73;;;10.32;;
23474;SDS011;11910;52.086;21.066;2022-10-26T10:37:57;15.38;;;10.77;;
23474;SDS011;11910;52.086;21.066;2022-10-26T10:40:24;17.83;;;11.38;;
23474;SDS011;11910;52.086;21.066;2022-10-26T10:42:52;14.48;;;10.82;;
23474;SDS011;11910;52.086;21.066;2022-10-26T10:45:37;15.25;;;9.85;;
23474;SDS011;11910;52.086;21.066;2022-10-26T10:48:13;14.82;;;10.75;;
23474;SDS011;11910;52.086;21.066;2022-10-26T10:53:54;19.80;;;11.50;;
23474;SDS011;11910;52.086;21.066;2022-10-26T10:59:07;14.93;;;10.85;;
23474;SDS011;11910;52.086;21.066;2022-10-26T11:01:37;16.95;;;10.70;;
23474;SDS011;11910;52.086;21.066;2022-10-26T11:07:16;15.93;;;10.82;;
23474;SDS011;11910;52.086;21.066;2022-10-26T11:09:44;17.73;;;10.13;;
23474;SDS011;11910;52.086;21.066;2022-10-26T11:12:14;17.65;;;10.50;;
23474;SDS011;11910;52.086;21.066;2022-10-26T11:14:55;15.10;;;10.43;;
23474;SDS011;11910;52.086;21.066;2022-10-26T11:17:33;16.05;;;9.70;;
23474;SDS011;11910;52.086;21.066;2022-10-26T11:20:38;19.30;;;10.85;;
23474;SDS011;11910;52.086;21.066;2022-10-26T11:26:04;20.10;;;12.38;;
23474;SDS011;11910;52.086;21.066;2022-10-26T11:31:14;16.77;;;11.90;;
23474;SDS011;11910;52.086;21.066;2022-10-26T11:33:58;21.13;;;12.10;;
23474;SDS011;11910;52.086;21.066;2022-10-26T11:36:32;18.55;;;12.13;;
23474;SDS011;11910;52.086;21.066;2022-10-26T11:39:00;20.67;;;12.63;;
23474;SDS011;11910;52.086;21.066;2022-10-26T11:41:52;28.25;;;14.02;;
23474;SDS011;11910;52.086;21.066;2022-10-26T11:47:45;26.02;;;13.38;;
23474;SDS011;11910;52.086;21.066;2022-10-26T11:52:46;18.60;;;12.68;;
23474;SDS011;11910;52.086;21.066;2022-10-26T11:55:16;21.20;;;12.50;;
23474;SDS011;11910;52.086;21.066;2022-10-26T11:57:43;20.67;;;12.55;;
23474;SDS011;11910;52.086;21.066;2022-10-26T12:02:41;20.08;;;13.75;;
23474;SDS011;11910;52.086;21.066;2022-10-26T12:07:39;24.75;;;14.00;;
23474;SDS011;11910;52.086;21.066;2022-10-26T12:10:18;19.25;;;12.63;;
23474;SDS011;11910;52.086;21.066;2022-10-26T12:12:56;21.67;;;13.27;;
23474;SDS011;11910;52.086;21.066;2022-10-26T12:15:45;21.58;;;12.95;;
23474;SDS011;11910;52.086;21.066;2022-10-26T12:18:20;21.17;;;13.10;;
23474;SDS011;11910;52.086;21.066;2022-10-26T12:21:14;20.67;;;13.73;;
23474;SDS011;11910;52.086;21.066;2022-10-26T12:39:30;22.13;;;13.80;;
23474;SDS011;11910;52.086;21.066;2022-10-26T12:52:53;19.40;;;12.52;;
23474;SDS011;11910;52.086;21.066;2022-10-26T13:09:07;22.55;;;13.48;;
23474;SDS011;11910;52.086;21.066;2022-10-26T13:11:44;18.25;;;11.50;;
23474;SDS011;11910;52.086;21.066;2022-10-26T13:14:17;19.63;;;11.43;;
23474;SDS011;11910;52.086;21.066;2022-10-26T13:16:48;18.70;;;11.05;;
23474;SDS011;11910;52.086;21.066;2022-10-26T13:19:29;16.70;;;10.45;;
23474;SDS011;11910;52.086;21.066;2022-10-26T13:21:58;18.85;;;11.05;;
23474;SDS011;11910;52.086;21.066;2022-10-26T13:24:25;14.82;;;9.48;;
23474;SDS011;11910;52.086;21.066;2022-10-26T13:29:32;15.60;;;10.57;;
23474;SDS011;11910;52.086;21.066;2022-10-26T13:32:32;15.35;;;10.55;;
23474;SDS011;11910;52.086;21.066;2022-10-26T13:35:00;14.07;;;9.75;;
23474;SDS011;11910;52.086;21.066;2022-10-26T13:37:28;13.60;;;10.02;;
23474;SDS011;11910;52.086;21.066;2022-10-26T13:39:56;15.25;;;10.02;;
23474;SDS011;11910;52.086;21.066;2022-10-26T13:42:25;15.27;;;10.32;;
23474;SDS011;11910;52.086;21.066;2022-10-26T13:45:10;16.97;;;9.20;;
23474;SDS011;11910;52.086;21.066;2022-10-26T13:50:27;13.55;;;8.90;;
23474;SDS011;11910;52.086;21.066;2022-10-26T13:53:00;13.88;;;9.43;;
23474;SDS011;11910;52.086;21.066;2022-10-26T13:55:50;15.77;;;9.23;;
23474;SDS011;11910;52.086;21.066;2022-10-26T13:58:22;13.65;;;9.30;;
23474;SDS011;11910;52.086;21.066;2022-10-26T14:03:33;13.93;;;8.80;;
23474;SDS011;11910;52.086;21.066;2022-10-26T14:05:58;16.15;;;9.00;;
23474;SDS011;11910;52.086;21.066;2022-10-26T14:08:28;14.20;;;9.18;;
23474;SDS011;11910;52.086;21.066;2022-10-26T14:10:55;16.52;;;8.52;;
23474;SDS011;11910;52.086;21.066;2022-10-26T14:13:23;14.07;;;9.25;;
23474;SDS011;11910;52.086;21.066;2022-10-26T14:15:50;12.07;;;8.40;;
23474;SDS011;11910;52.086;21.066;2022-10-26T14:18:22;14.18;;;9.15;;
23474;SDS011;11910;52.086;21.066;2022-10-26T14:23:35;15.07;;;10.83;;
23474;SDS011;11910;52.086;21.066;2022-10-26T14:26:17;22.30;;;12.38;;
23474;SDS011;11910;52.086;21.066;2022-10-26T14:29:03;19.75;;;11.65;;
23474;SDS011;11910;52.086;21.066;2022-10-26T14:31:56;17.08;;;11.48;;
23474;SDS011;11910;52.086;21.066;2022-10-26T14:34:24;21.55;;;14.02;;
23474;SDS011;11910;52.086;21.066;2022-10-26T14:36:52;19.95;;;14.57;;
23474;SDS011;11910;52.086;21.066;2022-10-26T14:39:30;25.25;;;15.32;;
23474;SDS011;11910;52.086;21.066;2022-10-26T14:42:07;23.60;;;16.27;;
23474;SDS011;11910;52.086;21.066;2022-10-26T14:44:39;24.05;;;15.70;;
23474;SDS011;11910;52.086;21.066;2022-10-26T14:47:11;23.80;;;16.17;;
23474;SDS011;11910;52.086;21.066;2022-10-26T14:49:47;22.70;;;14.85;;
23474;SDS011;11910;52.086;21.066;2022-10-26T14:52:14;26.70;;;17.33;;
23474;SDS011;11910;52.086;21.066;2022-10-26T14:55:00;26.73;;;17.80;;
23474;SDS011;11910;52.086;21.066;2022-10-26T14:57:31;24.90;;;16.43;;
23474;SDS011;11910;52.086;21.066;2022-10-26T15:00:03;27.67;;;16.77;;
23474;SDS011;11910;52.086;21.066;2022-10-26T15:02:40;23.48;;;16.38;;
23474;SDS011;11910;52.086;21.066;2022-10-26T15:07:49;17.58;;;10.82;;
23474;SDS011;11910;52.086;21.066;2022-10-26T15:10:49;24.10;;;16.30;;
23474;SDS011;11910;52.086;21.066;2022-10-26T15:15:56;20.13;;;13.25;;
23474;SDS011;11910;52.086;21.066;2022-10-26T15:18:32;15.77;;;10.10;;
23474;SDS011;11910;52.086;21.066;2022-10-26T15:21:00;15.90;;;10.07;;
23474;SDS011;11910;52.086;21.066;2022-10-26T15:23:26;23.85;;;14.38;;
23474;SDS011;11910;52.086;21.066;2022-10-26T15:25:57;18.10;;;10.38;;
23474;SDS011;11910;52.086;21.066;2022-10-26T15:28:29;18.07;;;11.93;;
23474;SDS011;11910;52.086;21.066;2022-10-26T15:33:36;25.98;;;11.48;;
23474;SDS011;11910;52.086;21.066;2022-10-26T15:38:42;21.77;;;10.75;;
23474;SDS011;11910;52.086;21.066;2022-10-26T15:41:15;15.40;;;10.25;;
23474;SDS011;11910;52.086;21.066;2022-10-26T15:44:03;22.15;;;11.80;;
23474;SDS011;11910;52.086;21.066;2022-10-26T15:46:37;19.35;;;10.88;;
23474;SDS011;11910;52.086;21.066;2022-10-26T15:49:04;19.95;;;10.55;;
23474;SDS011;11910;52.086;21.066;2022-10-26T15:51:31;19.85;;;10.30;;
23474;SDS011;11910;52.086;21.066;2022-10-26T15:53:57;29.70;;;15.82;;
23474;SDS011;11910;52.086;21.066;2022-10-26T15:56:25;19.30;;;11.07;;
23474;SDS011;11910;52.086;21.066;2022-10-26T15:58:51;20.77;;;11.95;;
23474;SDS011;11910;52.086;21.066;2022-10-26T16:01:19;15.55;;;10.68;;
23474;SDS011;11910;52.086;21.066;2022-10-26T16:03:47;17.80;;;10.48;;
23474;SDS011;11910;52.086;21.066;2022-10-26T16:06:18;15.20;;;10.48;;
23474;SDS011;11910;52.086;21.066;2022-10-26T16:08:56;20.08;;;12.75;;
23474;SDS011;11910;52.086;21.066;2022-10-26T16:11:24;22.90;;;14.55;;
23474;SDS011;11910;52.086;21.066;2022-10-26T16:13:50;17.67;;;9.90;;
23474;SDS011;11910;52.086;21.066;2022-10-26T16:16:16;24.63;;;12.00;;
23474;SDS011;11910;52.086;21.066;2022-10-26T16:18:43;24.17;;;14.43;;
23474;SDS011;11910;52.086;21.066;2022-10-26T16:21:12;20.33;;;11.40;;
23474;SDS011;11910;52.086;21.066;2022-10-26T16:23:40;23.27;;;13.05;;
23474;SDS011;11910;52.086;21.066;2022-10-26T16:26:06;21.15;;;12.57;;
23474;SDS011;11910;52.086;21.066;2022-10-26T16:28:33;44.45;;;20.75;;
23474;SDS011;11910;52.086;21.066;2022-10-26T16:31:00;20.73;;;14.32;;
23474;SDS011;11910;52.086;21.066;2022-10-26T16:33:27;24.25;;;12.75;;
23474;SDS011;11910;52.086;21.066;2022-10-26T16:35:56;26.52;;;14.82;;
23474;SDS011;11910;52.086;21.066;2022-10-26T16:38:24;25.15;;;14.00;;
23474;SDS011;11910;52.086;21.066;2022-10-26T16:40:58;19.70;;;13.23;;
23474;SDS011;11910;52.086;21.066;2022-10-26T16:43:36;37.97;;;17.83;;
23474;SDS011;11910;52.086;21.066;2022-10-26T16:46:05;25.50;;;13.55;;
23474;SDS011;11910;52.086;21.066;2022-10-26T16:48:36;27.25;;;14.60;;
23474;SDS011;11910;52.086;21.066;2022-10-26T16:51:13;25.13;;;13.52;;
23474;SDS011;11910;52.086;21.066;2022-10-26T16:53:40;22.10;;;13.35;;
23474;SDS011;11910;52.086;21.066;2022-10-26T16:56:07;25.23;;;13.18;;
23474;SDS011;11910;52.086;21.066;2022-10-26T16:58:35;20.15;;;13.85;;
23474;SDS011;11910;52.086;21.066;2022-10-26T17:01:01;30.33;;;14.80;;
23474;SDS011;11910;52.086;21.066;2022-10-26T17:03:28;25.15;;;14.38;;
23474;SDS011;11910;52.086;21.066;2022-10-26T17:05:54;29.60;;;14.60;;